Time;durP1;ratioP1;P1;durP2;ratioP2;P2;SDS_P1;SDS_P2;PMS_P1;PMS_P2;Temp;Humidity;BMP_temperature;BMP_pressure;BME280_temperature;BME280_humidity;BME280_pressure;Samples;Min_cycle;Max_cycle;Signal;HPM_P1;HPM_P2
2023/12/29 10:18:28;;;;;;;3.67;0.73;;;10.90;99.90;;;;;;4833012;23;20781;-72
2023/12/29 10:21:03;;;;;;;0.60;0.40;;;10.90;99.90;;;;;;4881256;29;20670;-73
2023/12/29 10:23:33;;;;;;;1.17;0.50;;;10.90;99.90;;;;;;4881380;29;20645;-72
2023/12/29 10:26:00;;;;;;;3.67;0.40;;;10.90;99.90;;;;;;4881215;29;20231;-72
2023/12/29 10:28:27;;;;;;;1.67;0.50;;;11.10;99.90;;;;;;4881406;29;20243;-73
2023/12/29 10:30:54;;;;;;;4.80;0.60;;;11.20;99.90;;;;;;4881418;29;20249;-73
2023/12/29 10:33:24;;;;;;;1.33;0.47;;;11.20;99.90;;;;;;4881188;29;20212;-73
2023/12/29 10:36:02;;;;;;;1.13;0.50;;;11.20;99.90;;;;;;4881197;29;20242;-74
2023/12/29 10:38:30;;;;;;;3.43;0.57;;;11.20;99.90;;;;;;4881091;29;20239;-72
2023/12/29 10:41:12;;;;;;;1.57;0.30;;;11.10;99.90;;;;;;4881329;29;20238;-73
2023/12/29 10:43:39;;;;;;;2.07;0.50;;;11.10;99.90;;;;;;4881067;29;20219;-73
2023/12/29 10:46:11;;;;;;;2.30;0.57;;;11.10;99.90;;;;;;4880633;29;20774;-73
2023/12/29 10:48:40;;;;;;;0.50;0.40;;;11.10;99.90;;;;;;4880936;29;20211;-72
2023/12/29 10:51:07;;;;;;;2.40;0.40;;;11.10;99.90;;;;;;4881042;29;20560;-73
2023/12/29 10:53:35;;;;;;;1.87;0.20;;;11.00;99.90;;;;;;4880874;29;20249;-72
2023/12/29 10:56:02;;;;;;;3.87;0.60;;;10.90;99.90;;;;;;4880565;29;20677;-72
2023/12/29 10:58:31;;;;;;;2.83;0.53;;;10.90;99.90;;;;;;4880398;29;20243;-72
2023/12/29 11:00:58;;;;;;;2.37;0.50;;;10.90;99.90;;;;;;4880876;29;20207;-73
2023/12/29 11:03:25;;;;;;;1.73;0.40;;;10.90;99.90;;;;;;4880874;29;20298;-72
2023/12/29 11:06:00;;;;;;;3.10;0.70;;;10.90;99.90;;;;;;4880261;29;20239;-72
2023/12/29 11:08:27;;;;;;;1.60;0.40;;;10.90;99.90;;;;;;4880486;29;20677;-72
2023/12/29 11:10:55;;;;;;;2.73;0.50;;;10.90;99.90;;;;;;4880717;29;20290;-72
2023/12/29 11:13:23;;;;;;;4.27;0.70;;;11.00;99.90;;;;;;4880553;29;20614;-73
2023/12/29 11:15:52;;;;;;;0.97;0.43;;;11.00;99.90;;;;;;4880597;29;20313;-73
2023/12/29 11:18:19;;;;;;;2.23;0.80;;;11.20;99.90;;;;;;4880048;29;20724;-73
2023/12/29 11:20:47;;;;;;;1.47;0.70;;;11.30;99.90;;;;;;4880450;29;20301;-72
2023/12/29 11:23:15;;;;;;;1.53;0.40;;;11.30;99.90;;;;;;4880428;29;20213;-73
2023/12/29 11:25:46;;;;;;;3.73;0.60;;;11.40;99.90;;;;;;4879919;29;20647;-72
2023/12/29 11:28:13;;;;;;;1.87;0.40;;;11.50;99.90;;;;;;4880089;29;20219;-72
2023/12/29 11:30:40;;;;;;;1.00;0.37;;;11.50;99.90;;;;;;4880249;29;20250;-72
2023/12/29 11:33:11;;;;;;;2.57;0.40;;;11.50;99.90;;;;;;4880113;29;20298;-73
2023/12/29 11:35:44;;;;;;;2.00;0.67;;;11.40;99.90;;;;;;4880037;29;20259;-72
2023/12/29 11:38:29;;;;;;;1.27;0.60;;;11.40;99.90;;;;;;4879853;29;20247;-73
2023/12/29 11:41:04;;;;;;;2.63;0.40;;;11.40;99.90;;;;;;4880117;29;20246;-73
2023/12/29 11:43:32;;;;;;;1.33;0.57;;;11.30;99.90;;;;;;4880047;29;20574;-73
2023/12/29 11:45:59;;;;;;;1.33;0.47;;;11.30;99.90;;;;;;4879415;29;20392;-74
2023/12/29 11:48:54;;;;;;;4.43;0.40;;;11.30;99.90;;;;;;4879797;29;20278;-73
2023/12/29 11:51:35;;;;;;;2.93;0.73;;;11.30;99.90;;;;;;4879767;29;20719;-73
2023/12/29 11:54:04;;;;;;;4.17;0.50;;;11.30;99.90;;;;;;4879601;29;20654;-74
2023/12/29 11:56:40;;;;;;;3.63;0.87;;;11.20;99.90;;;;;;4879389;29;20670;-73
2023/12/29 11:59:17;;;;;;;1.63;0.40;;;11.10;99.90;;;;;;4879214;29;20793;-72
2023/12/29 12:01:45;;;;;;;3.60;0.47;;;11.10;99.90;;;;;;4879610;29;20681;-73
2023/12/29 12:04:40;;;;;;;3.70;0.40;;;11.10;99.90;;;;;;4879838;29;20231;-74
2023/12/29 12:07:09;;;;;;;0.77;0.40;;;10.90;99.90;;;;;;4879669;29;20207;-73
2023/12/29 12:09:37;;;;;;;2.13;0.33;;;10.90;99.90;;;;;;4879690;29;20207;-74
2023/12/29 12:12:05;;;;;;;1.90;0.40;;;10.90;99.90;;;;;;4879639;29;20661;-73
2023/12/29 12:14:49;;;;;;;3.67;0.30;;;10.80;99.90;;;;;;4881590;29;20227;-73
2023/12/29 12:17:33;;;;;;;5.60;0.70;;;10.80;99.90;;;;;;4885451;29;20244;-73
2023/12/29 12:20:03;;;;;;;2.27;0.33;;;10.80;99.90;;;;;;4883916;29;20222;-74
2023/12/29 12:22:32;;;;;;;1.63;0.70;;;10.80;99.90;;;;;;4883495;29;20215;-72
2023/12/29 12:25:00;;;;;;;1.07;0.43;;;10.70;99.90;;;;;;4879289;29;20241;-73
2023/12/29 12:27:28;;;;;;;4.97;0.70;;;10.80;99.90;;;;;;4879404;29;20247;-74
2023/12/29 12:29:57;;;;;;;2.37;0.50;;;10.80;99.90;;;;;;4879129;29;20246;-74
2023/12/29 12:32:24;;;;;;;2.00;0.67;;;10.80;99.90;;;;;;4878926;29;20257;-73
2023/12/29 12:34:51;;;;;;;1.63;0.63;;;10.90;99.90;;;;;;4878715;29;20233;-73
2023/12/29 12:37:22;;;;;;;1.03;0.40;;;10.90;99.90;;;;;;4879399;29;20630;-74
2023/12/29 12:39:49;;;;;;;1.67;0.60;;;10.80;99.90;;;;;;4879578;29;20258;-73
2023/12/29 12:42:18;;;;;;;4.40;0.60;;;10.80;99.90;;;;;;4879052;29;20211;-73
2023/12/29 12:44:51;;;;;;;4.10;0.53;;;10.70;99.90;;;;;;4878851;29;20322;-73
2023/12/29 12:47:25;;;;;;;2.90;0.50;;;10.60;99.90;;;;;;4878851;29;20215;-73
2023/12/29 12:49:52;;;;;;;1.73;0.30;;;10.60;99.90;;;;;;4878872;29;20222;-74
2023/12/29 12:52:19;;;;;;;1.10;0.40;;;10.60;99.90;;;;;;4878971;29;20295;-74
2023/12/29 12:54:47;;;;;;;1.40;0.30;;;10.60;99.90;;;;;;4878688;29;20231;-74
2023/12/29 12:57:18;;;;;;;4.23;0.50;;;10.60;99.90;;;;;;4880361;29;20238;-74
2023/12/29 12:59:47;;;;;;;0.67;0.30;;;10.60;99.90;;;;;;4882692;29;20282;-74
2023/12/29 13:02:14;;;;;;;2.07;0.40;;;10.50;99.90;;;;;;4882853;29;20630;-74
2023/12/29 13:04:42;;;;;;;1.67;0.40;;;10.50;99.90;;;;;;4882721;29;20266;-74
2023/12/29 13:07:10;;;;;;;0.80;0.30;;;10.50;99.90;;;;;;4882724;29;20218;-74
2023/12/29 13:09:37;;;;;;;2.83;0.33;;;10.50;99.90;;;;;;4882668;29;20618;-74
2023/12/29 13:12:12;;;;;;;0.67;0.30;;;10.50;99.90;;;;;;4882764;29;20242;-74
2023/12/29 13:14:39;;;;;;;2.27;0.30;;;10.50;99.90;;;;;;4881538;29;20276;-76
2023/12/29 13:17:10;;;;;;;2.67;0.40;;;10.60;99.90;;;;;;4882083;29;20242;-73
2023/12/29 13:19:38;;;;;;;3.03;0.30;;;10.60;99.90;;;;;;4881917;29;20738;-74
2023/12/29 13:22:07;;;;;;;1.90;0.30;;;10.70;99.90;;;;;;4882074;29;20552;-75
2023/12/29 13:24:36;;;;;;;2.73;0.40;;;10.70;99.90;;;;;;4881871;29;20275;-73
2023/12/29 13:27:05;;;;;;;2.87;0.60;;;10.80;99.90;;;;;;4882480;29;20219;-73
2023/12/29 13:29:33;;;;;;;1.73;0.33;;;10.70;99.90;;;;;;4882105;29;20243;-77
2023/12/29 13:32:13;;;;;;;1.13;0.50;;;10.70;99.90;;;;;;4882191;29;20638;-76
2023/12/29 13:34:53;;;;;;;1.37;0.50;;;10.70;99.90;;;;;;4881942;29;20368;-77
2023/12/29 13:37:27;;;;;;;0.47;0.23;;;10.70;99.90;;;;;;4882464;29;20627;-74
2023/12/29 13:40:01;;;;;;;0.50;0.20;;;10.70;99.90;;;;;;4882091;29;20249;-77
2023/12/29 13:42:31;;;;;;;3.40;0.60;;;10.80;99.90;;;;;;4881949;29;20540;-74
2023/12/29 13:44:59;;;;;;;0.30;0.20;;;10.80;99.90;;;;;;4881752;29;20303;-76
2023/12/29 13:47:26;;;;;;;1.77;0.43;;;10.70;99.90;;;;;;4881688;29;20212;-74
2023/12/29 13:49:54;;;;;;;0.30;0.30;;;10.70;99.90;;;;;;4880183;29;20636;-77
2023/12/29 13:52:21;;;;;;;2.20;0.40;;;10.70;99.90;;;;;;4881764;29;20289;-74
2023/12/29 13:54:49;;;;;;;2.77;0.30;;;10.70;99.90;;;;;;4881646;29;20262;-74
2023/12/29 13:57:16;;;;;;;0.50;0.20;;;10.60;99.90;;;;;;4862755;29;20650;-74
2023/12/29 13:59:43;;;;;;;1.87;0.40;;;10.60;99.90;;;;;;4866668;29;20275;-72
2023/12/29 14:02:32;;;;;;;2.10;0.30;;;10.70;99.90;;;;;;4882162;29;20674;-73
2023/12/29 14:05:20;;;;;;;0.73;0.30;;;10.60;99.90;;;;;;4881872;29;20709;-73
2023/12/29 14:07:53;;;;;;;5.40;0.30;;;10.50;99.90;;;;;;4881177;29;20290;-71
2023/12/29 14:10:20;;;;;;;2.50;0.33;;;10.60;99.90;;;;;;4881288;29;20298;-72
2023/12/29 14:12:47;;;;;;;0.77;0.40;;;10.60;99.90;;;;;;4881461;29;20635;-72
2023/12/29 14:15:14;;;;;;;0.83;0.33;;;10.50;99.90;;;;;;4881641;29;20660;-73
2023/12/29 14:17:41;;;;;;;2.17;0.40;;;10.60;99.90;;;;;;4881279;29;20666;-72
2023/12/29 14:20:09;;;;;;;2.20;0.50;;;10.60;99.90;;;;;;4881228;29;20275;-73
2023/12/29 14:22:38;;;;;;;1.50;0.20;;;10.70;99.90;;;;;;4881324;29;20301;-73
2023/12/29 14:25:07;;;;;;;1.63;0.40;;;10.80;99.90;;;;;;4881373;29;20259;-74
2023/12/29 14:27:34;;;;;;;1.23;0.40;;;10.80;99.90;;;;;;4881236;29;20702;-72
2023/12/29 14:30:01;;;;;;;1.93;0.40;;;10.70;99.90;;;;;;4881191;29;20283;-73
2023/12/29 14:32:30;;;;;;;5.30;0.50;;;10.60;99.90;;;;;;4881123;29;20239;-72
2023/12/29 14:34:57;;;;;;;0.60;0.30;;;10.60;99.90;;;;;;4880730;29;20231;-72
2023/12/29 14:37:25;;;;;;;0.60;0.40;;;10.60;99.90;;;;;;4881068;29;20242;-72
2023/12/29 14:39:54;;;;;;;1.77;0.43;;;10.60;99.90;;;;;;4880575;29;20579;-71
2023/12/29 14:42:21;;;;;;;1.00;0.50;;;10.60;99.90;;;;;;4880836;29;20217;-71
2023/12/29 14:44:48;;;;;;;3.60;0.80;;;10.60;99.90;;;;;;4880700;29;20652;-72
2023/12/29 14:47:17;;;;;;;2.33;0.90;;;10.70;99.90;;;;;;4880987;29;20670;-71
2023/12/29 14:49:45;;;;;;;2.83;0.73;;;10.70;99.90;;;;;;4880874;29;20243;-72
2023/12/29 14:52:12;;;;;;;1.43;0.53;;;10.80;99.90;;;;;;4880739;29;20219;-72
2023/12/29 14:54:40;;;;;;;0.90;0.50;;;10.70;99.90;;;;;;4880643;29;20266;-73
2023/12/29 14:57:08;;;;;;;0.80;0.53;;;10.80;99.90;;;;;;4880396;29;20675;-73
2023/12/29 14:59:36;;;;;;;0.90;0.43;;;10.70;99.90;;;;;;4880560;29;20277;-72
2023/12/29 15:02:07;;;;;;;1.13;0.47;;;10.80;99.90;;;;;;4880770;29;20207;-72
2023/12/29 15:04:34;;;;;;;1.20;0.50;;;10.70;99.90;;;;;;4880343;29;20682;-72
2023/12/29 15:07:01;;;;;;;0.50;0.30;;;10.60;99.90;;;;;;4880360;29;20306;-72
2023/12/29 15:09:28;;;;;;;2.40;0.33;;;10.60;99.90;;;;;;4880391;29;20751;-73
2023/12/29 15:11:55;;;;;;;1.50;0.40;;;10.60;99.90;;;;;;4880821;29;20243;-72
2023/12/29 15:14:23;;;;;;;2.40;0.50;;;10.60;99.90;;;;;;4880519;29;20330;-72
2023/12/29 15:16:50;;;;;;;2.27;1.07;;;10.50;99.90;;;;;;4880300;29;20242;-72
2023/12/29 15:19:17;;;;;;;2.30;0.70;;;10.50;99.90;;;;;;4880041;29;20329;-72
2023/12/29 15:21:43;;;;;;;2.37;0.50;;;10.50;99.90;;;;;;4879486;29;20250;-72
2023/12/29 15:24:10;;;;;;;2.07;0.50;;;10.50;99.90;;;;;;4880097;29;20266;-72
2023/12/29 15:26:37;;;;;;;4.43;0.90;;;10.50;99.90;;;;;;4880477;29;20245;-72
2023/12/29 15:29:04;;;;;;;1.30;0.50;;;10.50;99.90;;;;;;4880263;29;20259;-71
2023/12/29 15:31:32;;;;;;;0.70;0.30;;;10.50;99.90;;;;;;4880011;29;20705;-71
2023/12/29 15:33:59;;;;;;;4.07;0.80;;;10.50;99.90;;;;;;4879851;29;20270;-72
2023/12/29 15:36:26;;;;;;;3.73;0.40;;;10.50;99.90;;;;;;4880068;29;20306;-72
2023/12/29 15:38:53;;;;;;;1.43;0.40;;;10.50;99.90;;;;;;4879922;29;20781;-71
2023/12/29 15:41:21;;;;;;;3.77;0.67;;;10.50;99.90;;;;;;4879824;29;20211;-72
2023/12/29 15:43:49;;;;;;;2.63;0.40;;;10.40;99.90;;;;;;4880251;29;20234;-71
2023/12/29 15:46:16;;;;;;;1.33;0.33;;;10.40;99.90;;;;;;4879587;29;20239;-71
2023/12/29 15:48:45;;;;;;;0.60;0.50;;;10.40;99.90;;;;;;4879852;29;20254;-71
2023/12/29 15:51:12;;;;;;;1.00;0.50;;;10.40;99.90;;;;;;4880397;29;20243;-71
2023/12/29 15:53:40;;;;;;;2.20;0.40;;;10.40;99.90;;;;;;4880040;29;20410;-72
2023/12/29 15:56:07;;;;;;;1.10;0.40;;;10.30;99.90;;;;;;4879627;29;20211;-71
2023/12/29 15:58:34;;;;;;;4.37;0.70;;;10.20;99.90;;;;;;4879324;29;20639;-72
2023/12/29 16:01:01;;;;;;;0.80;0.77;;;10.20;99.90;;;;;;4879432;29;20207;-71
2023/12/29 16:03:32;;;;;;;5.40;0.93;;;10.20;99.90;;;;;;4879489;29;20250;-72
2023/12/29 16:06:00;;;;;;;3.80;0.50;;;10.20;99.90;;;;;;4879444;29;20266;-72
2023/12/29 16:08:27;;;;;;;1.37;0.37;;;10.20;99.90;;;;;;4879396;29;20257;-71
2023/12/29 16:10:54;;;;;;;1.63;0.40;;;10.10;99.90;;;;;;4878941;29;20246;-73
2023/12/29 16:13:21;;;;;;;2.20;0.50;;;10.10;99.90;;;;;;4879182;29;20250;-72
2023/12/29 16:15:48;;;;;;;2.20;0.40;;;10.10;99.90;;;;;;4879289;29;20318;-71
2023/12/29 16:18:15;;;;;;;2.00;0.50;;;10.00;99.90;;;;;;4879400;29;20310;-72
2023/12/29 16:20:42;;;;;;;3.53;0.73;;;10.00;99.90;;;;;;4879621;29;20325;-74
2023/12/29 16:23:10;;;;;;;2.23;0.70;;;10.10;99.90;;;;;;4880049;29;20223;-71
2023/12/29 16:25:37;;;;;;;1.07;0.47;;;10.10;99.90;;;;;;4879303;29;20318;-72
2023/12/29 16:28:04;;;;;;;0.87;0.47;;;10.00;99.90;;;;;;4879179;29;20298;-72
2023/12/29 16:30:31;;;;;;;2.73;0.50;;;10.00;99.90;;;;;;4879113;29;20643;-71
2023/12/29 16:32:58;;;;;;;1.67;0.60;;;9.90;99.90;;;;;;4878856;29;20639;-72
2023/12/29 16:35:25;;;;;;;3.27;0.50;;;10.00;99.90;;;;;;4879054;29;20239;-71
2023/12/29 16:37:52;;;;;;;3.17;0.70;;;9.90;99.90;;;;;;4879291;29;20254;-71
2023/12/29 16:40:21;;;;;;;2.37;0.80;;;9.90;99.90;;;;;;4879063;29;20239;-71
2023/12/29 16:42:48;;;;;;;2.43;0.60;;;10.00;99.90;;;;;;4879213;29;20215;-71
2023/12/29 16:45:14;;;;;;;1.13;0.60;;;10.00;99.90;;;;;;4878825;29;20326;-72
2023/12/29 16:47:42;;;;;;;3.20;0.70;;;10.00;99.90;;;;;;4879165;29;20954;-72
2023/12/29 16:50:09;;;;;;;2.97;0.47;;;10.10;99.90;;;;;;4878911;29;20215;-72
2023/12/29 16:52:36;;;;;;;2.90;0.87;;;10.10;99.90;;;;;;4878937;29;20263;-72
2023/12/29 16:55:04;;;;;;;1.53;0.67;;;10.20;99.90;;;;;;4878580;29;20282;-72
2023/12/29 16:57:32;;;;;;;2.77;0.80;;;10.20;99.90;;;;;;4878777;29;20700;-72
2023/12/29 16:59:59;;;;;;;1.20;0.63;;;10.30;99.90;;;;;;4878497;29;20345;-72
2023/12/29 17:02:26;;;;;;;5.97;0.80;;;10.30;99.90;;;;;;4878274;29;20250;-72
2023/12/29 17:04:53;;;;;;;2.50;0.50;;;10.30;99.90;;;;;;4878136;29;20271;-73
2023/12/29 17:07:20;;;;;;;1.30;0.80;;;10.30;99.90;;;;;;4877886;29;20691;-71
2023/12/29 17:09:47;;;;;;;4.50;0.50;;;10.30;99.90;;;;;;4878244;29;20523;-71
2023/12/29 17:12:14;;;;;;;1.63;0.40;;;10.30;99.90;;;;;;4878453;29;20231;-72
2023/12/29 17:14:42;;;;;;;1.77;0.53;;;10.30;99.90;;;;;;4878018;29;20247;-73
2023/12/29 17:17:09;;;;;;;4.67;0.50;;;10.40;99.90;;;;;;4876518;29;20317;-77
2023/12/29 17:19:36;;;;;;;4.70;0.67;;;10.40;99.90;;;;;;4877325;29;20282;-74
2023/12/29 17:22:04;;;;;;;4.23;0.97;;;10.40;99.90;;;;;;4872444;29;20243;-82
2023/12/29 17:24:32;;;;;;;2.50;0.70;;;10.50;99.90;;;;;;4876196;29;20269;-72
2023/12/29 17:26:59;;;;;;;2.67;0.60;;;10.40;99.90;;;;;;4876748;29;20215;-70
2023/12/29 17:29:27;;;;;;;1.27;0.47;;;10.40;99.90;;;;;;4876442;29;20294;-80
2023/12/29 17:31:55;;;;;;;4.07;0.80;;;10.50;99.90;;;;;;4878053;29;20207;-76
2023/12/29 17:34:22;;;;;;;4.63;0.90;;;10.40;99.90;;;;;;4877283;29;20701;-76
2023/12/29 17:36:49;;;;;;;6.63;2.27;;;10.40;99.90;;;;;;4875279;29;20208;-86
2023/12/29 17:39:16;;;;;;;2.17;0.60;;;10.30;99.90;;;;;;4876375;29;20243;-80
2023/12/29 17:41:43;;;;;;;2.40;0.60;;;10.30;99.90;;;;;;4876298;29;20256;-81
2023/12/29 17:44:10;;;;;;;5.83;0.70;;;10.30;99.90;;;;;;4877738;29;20223;-79
2023/12/29 17:46:37;;;;;;;2.27;0.43;;;10.40;99.90;;;;;;4877211;29;20215;-75
2023/12/29 17:49:05;;;;;;;2.03;0.70;;;10.30;99.90;;;;;;4879483;29;20239;-78
2023/12/29 17:51:32;;;;;;;4.60;0.90;;;10.30;99.90;;;;;;4878785;29;20250;-78
2023/12/29 17:54:00;;;;;;;0.80;0.50;;;10.20;99.90;;;;;;4879597;29;20615;-78
2023/12/29 17:56:27;;;;;;;3.03;0.70;;;10.20;99.90;;;;;;4879771;29;20283;-77
2023/12/29 17:58:54;;;;;;;2.00;0.80;;;10.10;99.90;;;;;;4879473;29;20211;-82
2023/12/29 18:01:21;;;;;;;2.07;0.70;;;10.10;99.90;;;;;;4880394;29;20579;-83
2023/12/29 18:03:49;;;;;;;3.63;0.60;;;10.10;99.90;;;;;;4879768;29;20215;-85
2023/12/29 18:06:17;;;;;;;0.80;0.70;;;10.00;99.90;;;;;;4880335;29;20219;-80
2023/12/29 18:08:47;;;;;;;2.77;0.70;;;10.00;99.90;;;;;;4879864;29;20206;-76
2023/12/29 18:11:14;;;;;;;2.33;0.47;;;10.00;99.90;;;;;;4878031;29;20286;-77
2023/12/29 18:13:41;;;;;;;3.53;0.90;;;10.00;99.90;;;;;;4875024;29;20333;-82
2023/12/29 18:16:10;;;;;;;5.30;1.43;;;10.00;99.90;;;;;;4879274;29;20603;-80
2023/12/29 18:18:37;;;;;;;1.67;0.67;;;10.00;99.90;;;;;;4879776;29;20321;-80
2023/12/29 18:21:04;;;;;;;1.53;1.00;;;10.00;99.90;;;;;;4874373;29;20325;-75
2023/12/29 18:23:33;;;;;;;1.87;0.87;;;10.00;99.90;;;;;;4879294;29;20283;-77
2023/12/29 18:26:03;;;;;;;3.23;1.10;;;10.10;99.90;;;;;;4879328;29;20718;-78
2023/12/29 18:28:30;;;;;;;2.80;0.70;;;10.10;99.90;;;;;;4878766;29;20746;-76
2023/12/29 18:30:57;;;;;;;1.57;0.90;;;10.00;99.90;;;;;;4883194;29;20216;-76
2023/12/29 18:33:24;;;;;;;2.10;0.83;;;10.00;99.90;;;;;;4870029;29;20219;-76
2023/12/29 18:35:51;;;;;;;1.80;0.73;;;9.90;99.90;;;;;;4878292;29;20274;-74
2023/12/29 18:38:18;;;;;;;3.77;0.93;;;9.90;99.90;;;;;;4879139;29;20314;-76
2023/12/29 18:40:46;;;;;;;4.00;0.90;;;9.90;99.90;;;;;;4878712;29;20729;-75
2023/12/29 18:43:13;;;;;;;6.00;1.53;;;9.90;99.90;;;;;;4876749;29;20754;-77
2023/12/29 18:45:41;;;;;;;1.33;0.60;;;9.90;99.90;;;;;;4879818;29;20314;-78
2023/12/29 18:48:09;;;;;;;3.40;0.67;;;9.90;99.90;;;;;;4880338;29;20271;-77
2023/12/29 18:50:36;;;;;;;6.47;1.10;;;9.90;99.90;;;;;;4878901;29;20208;-77
2023/12/29 18:53:04;;;;;;;1.53;0.73;;;9.90;99.90;;;;;;4871954;29;20251;-77
2023/12/29 18:55:31;;;;;;;3.07;0.53;;;10.00;99.90;;;;;;4878143;29;20231;-77
2023/12/29 18:57:59;;;;;;;6.70;1.10;;;9.90;99.90;;;;;;4880535;29;20234;-77
2023/12/29 19:00:26;;;;;;;8.00;0.60;;;9.90;99.90;;;;;;4880246;29;20246;-76
2023/12/29 19:02:53;;;;;;;2.40;0.70;;;9.90;99.90;;;;;;4879610;29;20231;-77
2023/12/29 19:05:22;;;;;;;3.47;0.67;;;9.90;99.90;;;;;;4879490;29;20317;-77
2023/12/29 19:07:48;;;;;;;7.90;1.17;;;9.80;99.90;;;;;;4880065;29;20563;-77
2023/12/29 19:10:15;;;;;;;5.13;0.70;;;9.70;99.90;;;;;;4879908;29;20215;-77
2023/12/29 19:12:46;;;;;;;2.47;0.57;;;9.70;99.90;;;;;;4876937;29;20223;-77
2023/12/29 19:15:15;;;;;;;4.93;0.80;;;9.80;99.90;;;;;;4868526;29;20235;-77
2023/12/29 19:17:42;;;;;;;4.80;1.50;;;9.80;99.90;;;;;;4871706;29;20223;-77
2023/12/29 19:20:10;;;;;;;3.63;0.80;;;9.70;99.90;;;;;;4869671;29;20364;-77
2023/12/29 19:22:40;;;;;;;3.70;0.70;;;9.70;99.90;;;;;;4867750;29;20578;-77
2023/12/29 19:25:07;;;;;;;3.33;0.70;;;9.70;99.90;;;;;;4871066;29;20593;-77
2023/12/29 19:27:34;;;;;;;3.67;1.00;;;9.70;99.90;;;;;;4864821;29;20254;-77
2023/12/29 19:30:01;;;;;;;4.77;1.10;;;9.60;99.90;;;;;;4874308;29;20245;-77
2023/12/29 19:32:29;;;;;;;6.73;1.17;;;9.60;99.90;;;;;;4878632;29;20639;-77
2023/12/29 19:34:56;;;;;;;3.47;0.80;;;9.60;99.90;;;;;;4879364;29;20322;-77
2023/12/29 19:37:22;;;;;;;7.93;1.03;;;9.60;99.90;;;;;;4879284;29;20250;-77
2023/12/29 19:39:49;;;;;;;5.97;0.80;;;9.60;99.90;;;;;;4879439;29;20306;-77
2023/12/29 19:42:16;;;;;;;3.90;1.00;;;9.70;99.90;;;;;;4879091;29;20234;-77
2023/12/29 19:44:43;;;;;;;2.97;0.80;;;9.60;99.90;;;;;;4878866;29;20317;-77
2023/12/29 19:47:11;;;;;;;6.57;0.77;;;9.60;99.90;;;;;;4879321;29;20292;-77
2023/12/29 19:49:41;;;;;;;2.93;0.83;;;9.60;99.90;;;;;;4879452;29;20211;-77
2023/12/29 19:52:10;;;;;;;4.97;1.00;;;9.60;99.90;;;;;;4879572;29;20242;-77
2023/12/29 19:54:38;;;;;;;5.60;0.90;;;9.60;99.90;;;;;;4879451;29;20230;-77
2023/12/29 19:57:05;;;;;;;2.63;0.70;;;9.60;99.90;;;;;;4878936;29;20294;-77
2023/12/29 19:59:32;;;;;;;7.03;0.80;;;9.60;99.90;;;;;;4875383;29;20440;-77
2023/12/29 20:01:59;;;;;;;8.77;0.90;;;9.60;99.90;;;;;;4877136;29;20235;-77
2023/12/29 20:04:26;;;;;;;8.97;1.03;;;9.60;99.90;;;;;;4880495;29;20323;-77
2023/12/29 20:06:55;;;;;;;2.30;0.90;;;9.70;99.90;;;;;;4881149;29;20239;-76
2023/12/29 20:09:22;;;;;;;4.87;1.10;;;9.70;99.90;;;;;;4882585;29;20253;-77
2023/12/29 20:11:49;;;;;;;3.07;0.70;;;9.80;99.90;;;;;;4879655;29;20215;-76
2023/12/29 20:14:18;;;;;;;5.60;0.73;;;9.80;99.90;;;;;;4879874;29;20250;-76
2023/12/29 20:16:44;;;;;;;3.70;0.60;;;9.80;99.90;;;;;;4879313;29;20211;-77
2023/12/29 20:19:11;;;;;;;5.57;1.33;;;9.70;99.90;;;;;;4878716;29;20875;-77
2023/12/29 20:21:38;;;;;;;3.97;0.80;;;9.80;99.90;;;;;;4878972;29;20664;-77
2023/12/29 20:24:09;;;;;;;2.40;1.07;;;9.70;99.90;;;;;;4878901;29;20247;-77
2023/12/29 20:26:36;;;;;;;1.83;0.70;;;9.70;99.90;;;;;;4879003;29;20244;-77
2023/12/29 20:29:05;;;;;;;3.80;0.77;;;9.60;99.90;;;;;;4878594;29;20242;-77
2023/12/29 20:31:33;;;;;;;4.07;1.10;;;9.60;99.90;;;;;;4878520;29;20243;-77
2023/12/29 20:34:01;;;;;;;6.07;0.60;;;9.60;99.90;;;;;;4875047;29;20207;-77
2023/12/29 20:36:28;;;;;;;3.73;0.57;;;9.50;99.90;;;;;;4878879;29;20211;-77
2023/12/29 20:38:56;;;;;;;2.73;0.77;;;9.40;99.90;;;;;;4878524;29;20246;-77
2023/12/29 20:41:25;;;;;;;5.30;0.57;;;9.40;99.90;;;;;;4878067;29;20326;-77
2023/12/29 20:43:53;;;;;;;5.20;1.17;;;9.40;99.90;;;;;;4878411;29;20294;-77
2023/12/29 20:46:21;;;;;;;4.50;0.83;;;9.40;99.90;;;;;;4878785;29;20203;-77
2023/12/29 20:48:48;;;;;;;4.03;0.90;;;9.30;99.90;;;;;;4878181;29;20253;-77
2023/12/29 20:51:18;;;;;;;8.00;0.70;;;9.30;99.90;;;;;;4878494;29;20258;-77
2023/12/29 20:53:45;;;;;;;1.97;0.50;;;9.30;99.90;;;;;;4878221;29;20278;-77
2023/12/29 20:56:12;;;;;;;4.10;0.73;;;9.30;99.90;;;;;;4878368;29;20695;-77
2023/12/29 20:58:40;;;;;;;7.03;0.70;;;9.30;99.90;;;;;;4878473;29;20211;-77
2023/12/29 21:01:08;;;;;;;3.80;0.80;;;9.30;99.90;;;;;;4878779;29;20338;-77
2023/12/29 21:03:35;;;;;;;4.40;1.23;;;9.30;99.90;;;;;;4878334;29;20211;-77
2023/12/29 21:06:02;;;;;;;4.43;1.03;;;9.20;99.90;;;;;;4878219;29;20269;-77
2023/12/29 21:08:29;;;;;;;0.83;0.50;;;9.20;99.90;;;;;;4875980;29;20223;-77
2023/12/29 21:10:56;;;;;;;6.57;1.93;;;9.20;99.90;;;;;;4877348;29;20259;-77
2023/12/29 21:13:23;;;;;;;5.13;1.10;;;9.20;99.90;;;;;;4878478;29;20250;-77
2023/12/29 21:15:52;;;;;;;8.40;1.10;;;9.20;99.90;;;;;;4878156;29;20227;-77
2023/12/29 21:18:20;;;;;;;4.90;0.83;;;9.30;99.90;;;;;;4878376;29;20211;-77
2023/12/29 21:20:47;;;;;;;7.13;0.73;;;9.30;99.90;;;;;;4881953;29;20329;-77
2023/12/29 21:23:14;;;;;;;5.40;0.80;;;9.40;99.90;;;;;;4881828;29;20234;-77
2023/12/29 21:25:41;;;;;;;4.23;0.77;;;9.40;99.90;;;;;;4881510;29;20230;-77
2023/12/29 21:28:08;;;;;;;1.67;0.43;;;9.50;99.90;;;;;;4881598;29;20279;-77
2023/12/29 21:30:36;;;;;;;3.27;0.47;;;9.40;99.90;;;;;;4881371;29;20245;-77
2023/12/29 21:33:04;;;;;;;5.00;0.90;;;9.40;99.90;;;;;;4881947;29;20275;-76
2023/12/29 21:35:31;;;;;;;2.50;0.70;;;9.40;99.90;;;;;;4881531;29;20287;-77
2023/12/29 21:37:58;;;;;;;5.13;0.67;;;9.50;99.90;;;;;;4881801;29;20246;-77
2023/12/29 21:40:25;;;;;;;9.17;0.73;;;9.60;99.90;;;;;;4881542;29;20294;-77
2023/12/29 21:42:52;;;;;;;5.40;0.77;;;9.60;99.90;;;;;;4869494;29;20218;-77
2023/12/29 21:45:20;;;;;;;3.60;0.50;;;9.60;99.90;;;;;;4881373;29;20231;-77
2023/12/29 21:47:47;;;;;;;6.23;0.60;;;9.70;99.90;;;;;;4881761;29;20244;-77
2023/12/29 21:50:16;;;;;;;1.93;0.57;;;9.70;99.90;;;;;;4881347;29;20242;-77
2023/12/29 21:52:43;;;;;;;2.87;1.07;;;9.70;99.90;;;;;;4881356;29;20237;-77
2023/12/29 21:55:11;;;;;;;2.60;0.60;;;9.60;99.90;;;;;;4881640;29;20319;-77
2023/12/29 21:57:38;;;;;;;4.40;1.10;;;9.50;99.90;;;;;;4881097;29;20242;-77
2023/12/29 22:00:06;;;;;;;2.43;0.77;;;9.50;99.90;;;;;;4881405;29;20212;-77
2023/12/29 22:02:33;;;;;;;2.63;0.70;;;9.50;99.90;;;;;;4881383;29;20300;-77
2023/12/29 22:05:00;;;;;;;2.83;0.53;;;9.40;99.90;;;;;;4881188;29;20266;-77
2023/12/29 22:07:28;;;;;;;6.53;1.13;;;9.40;99.90;;;;;;4880919;29;20247;-77
2023/12/29 22:09:55;;;;;;;8.13;1.73;;;9.40;99.90;;;;;;4881293;29;20246;-77
2023/12/29 22:12:22;;;;;;;6.37;0.63;;;9.30;99.90;;;;;;4881299;29;20251;-77
2023/12/29 22:14:48;;;;;;;3.83;0.80;;;9.30;99.90;;;;;;4880514;29;20263;-77
2023/12/29 22:17:15;;;;;;;3.93;0.50;;;9.30;99.90;;;;;;4877218;29;20278;-77
2023/12/29 22:19:42;;;;;;;5.50;0.80;;;9.30;99.90;;;;;;4881112;29;20262;-77
2023/12/29 22:22:09;;;;;;;4.63;0.73;;;9.20;99.90;;;;;;4880639;29;20277;-77
2023/12/29 22:24:37;;;;;;;6.57;0.80;;;9.20;99.90;;;;;;4881351;29;20262;-76
2023/12/29 22:27:05;;;;;;;6.17;0.70;;;9.30;99.90;;;;;;4880869;29;20243;-77
2023/12/29 22:29:31;;;;;;;6.30;0.80;;;9.30;99.90;;;;;;4880075;29;20247;-77
2023/12/29 22:31:58;;;;;;;3.27;0.40;;;9.30;99.90;;;;;;4880761;29;20254;-77
2023/12/29 22:34:25;;;;;;;1.00;0.37;;;9.20;99.90;;;;;;4880785;29;20262;-77
2023/12/29 22:36:52;;;;;;;5.53;0.83;;;9.30;99.90;;;;;;4880592;29;20222;-77
2023/12/29 22:39:19;;;;;;;2.80;0.50;;;9.20;99.90;;;;;;4875171;29;20290;-76
